createdAt,value
2022-10-13T00:02:40.366Z,11.28
2022-10-13T00:09:21.884Z,9.16
2022-10-13T00:16:03.693Z,10.62
2022-10-13T00:22:45.325Z,11.29
2022-10-13T00:29:26.961Z,9.00
2022-10-13T00:36:08.501Z,10.32
2022-10-13T00:42:52.912Z,11.08
2022-10-13T00:49:34.484Z,8.80
2022-10-13T00:56:16.304Z,10.28
2022-10-13T01:02:58.051Z,10.93
2022-10-13T01:09:39.403Z,8.83
2022-10-13T01:16:39.449Z,10.39
2022-10-13T01:23:26.879Z,10.98
2022-10-13T01:30:11.524Z,9.08
2022-10-13T01:36:57.156Z,10.67
2022-10-13T01:57:09.296Z,10.24
2022-10-13T02:11:01.935Z,8.94
2022-10-13T02:17:43.159Z,10.33
2022-10-13T02:24:24.715Z,10.93
2022-10-13T02:31:06.340Z,9.03
2022-10-13T02:37:48.106Z,10.09
2022-10-13T02:44:29.916Z,10.99
2022-10-13T02:51:11.523Z,9.11
2022-10-13T02:57:52.944Z,10.65
2022-10-13T03:04:34.464Z,11.07
2022-10-13T03:11:15.802Z,9.22
2022-10-13T03:17:57.214Z,8.25
2022-10-13T03:24:38.932Z,10.27
2022-10-13T03:31:20.453Z,11.11
2022-10-13T03:37:49.667Z,9.18
2022-10-13T03:44:31.180Z,8.07
2022-10-13T03:51:13.044Z,9.87
2022-10-13T03:57:54.809Z,10.83
2022-10-13T04:04:17.814Z,8.72
2022-10-13T04:10:59.232Z,10.08
2022-10-13T04:17:40.544Z,10.92
2022-10-13T04:24:22.492Z,8.80
2022-10-13T04:31:03.964Z,10.28
2022-10-13T04:37:45.455Z,10.79
2022-10-13T04:44:29.806Z,8.97
2022-10-13T04:51:11.294Z,7.90
2022-10-13T04:57:52.850Z,9.94
2022-10-13T05:04:34.547Z,10.94
2022-10-13T05:10:55.648Z,9.08
2022-10-13T05:17:36.942Z,8.08
2022-10-13T05:23:38.892Z,10.47
2022-10-13T05:29:06.916Z,11.58
2022-10-13T05:35:27.961Z,9.62
2022-10-13T05:41:08.997Z,8.59
2022-10-13T05:46:31.511Z,9.85
2022-10-13T05:51:56.633Z,11.82
2022-10-13T05:57:49.739Z,9.76
2022-10-13T06:03:22.414Z,8.35
2022-10-13T06:08:45.693Z,9.47
2022-10-13T06:14:07.838Z,12.38
2022-10-13T06:19:37.044Z,10.82
2022-10-13T06:25:02.328Z,9.66
2022-10-13T06:30:27.740Z,10.80
2022-10-13T06:36:09.118Z,12.75
2022-10-13T06:42:34.749Z,11.04
2022-10-13T06:48:22.759Z,10.10
2022-10-13T06:53:43.860Z,11.45
2022-10-13T06:59:04.833Z,13.48
2022-10-13T07:04:27.499Z,11.76
2022-10-13T07:09:52.083Z,10.85
2022-10-13T07:15:14.279Z,12.05
2022-10-13T07:20:37.226Z,13.97
2022-10-13T07:26:01.393Z,12.41
2022-10-13T07:31:27.044Z,11.55
2022-10-13T07:36:48.868Z,11.11
2022-10-13T07:42:11.239Z,12.43
2022-10-13T07:47:33.052Z,14.48
2022-10-13T07:52:53.703Z,13.06
2022-10-13T07:58:46.915Z,12.35
2022-10-13T08:04:31.003Z,12.40
2022-10-13T08:09:55.575Z,15.48
2022-10-13T08:15:18.934Z,14.52
2022-10-13T08:20:44.354Z,13.57
2022-10-13T08:26:12.267Z,13.24
2022-10-13T08:32:14.182Z,13.06
2022-10-13T08:38:45.963Z,12.92
2022-10-13T08:45:15.783Z,12.87
2022-10-13T08:50:46.030Z,12.87
2022-10-13T08:56:37.476Z,12.97
2022-10-13T09:02:11.467Z,13.10
2022-10-13T09:07:39.383Z,13.26
2022-10-13T09:13:01.969Z,13.36
2022-10-13T09:18:38.359Z,15.94
2022-10-13T09:24:35.401Z,17.09
2022-10-13T09:30:37.671Z,16.05
2022-10-13T09:36:41.154Z,15.70
2022-10-13T09:42:45.974Z,15.60
2022-10-13T09:49:00.643Z,15.66
2022-10-13T09:55:07.577Z,15.74
2022-10-13T10:01:01.850Z,15.74
2022-10-13T10:07:42.873Z,15.84
2022-10-13T10:13:13.304Z,16.06
2022-10-13T10:18:45.788Z,16.25
2022-10-13T10:24:30.489Z,16.45
2022-10-13T10:30:06.498Z,16.58
2022-10-13T10:35:54.612Z,16.74
2022-10-13T10:42:09.338Z,16.93
2022-10-13T10:48:02.893Z,17.14
2022-10-13T10:54:43.899Z,17.28
2022-10-13T11:13:56.257Z,18.70
2022-10-13T11:20:06.865Z,19.15
2022-10-13T11:39:16.319Z,19.71
2022-10-13T11:52:30.043Z,19.89
2022-10-13T12:06:39.730Z,20.27
2022-10-13T12:13:35.618Z,20.38
2022-10-13T12:20:31.970Z,20.72
2022-10-13T12:35:06.553Z,21.33
2022-10-13T12:41:44.290Z,21.43
2022-10-13T13:03:21.156Z,21.70
2022-10-13T13:59:06.187Z,21.43
2022-10-13T14:25:34.233Z,20.82
2022-10-13T14:33:54.438Z,20.58
2022-10-13T15:47:46.701Z,17.93
2022-10-13T16:19:42.825Z,16.48
2022-10-13T16:26:27.246Z,16.25
2022-10-13T16:32:10.046Z,16.01
2022-10-13T16:37:31.864Z,17.31
2022-10-13T16:42:54.113Z,19.19
2022-10-13T16:49:18.201Z,17.72
2022-10-13T16:56:02.914Z,16.72
2022-10-13T17:02:06.049Z,16.10
2022-10-13T17:08:29.763Z,15.67
2022-10-13T17:14:35.805Z,17.74
2022-10-13T17:20:18.245Z,18.82
2022-10-13T17:26:47.288Z,17.24
2022-10-13T17:33:09.395Z,16.38
2022-10-13T17:39:51.845Z,15.75
2022-10-13T17:45:41.159Z,15.27
2022-10-13T17:51:45.581Z,16.89
2022-10-13T17:58:07.733Z,18.18
2022-10-13T18:04:38.106Z,16.54
2022-10-13T18:11:08.710Z,15.67
2022-10-13T18:17:20.831Z,15.06
2022-10-13T18:23:27.420Z,14.67
2022-10-13T18:29:23.682Z,16.47
2022-10-13T18:35:23.392Z,18.06
2022-10-13T18:41:15.040Z,16.44
2022-10-13T18:47:26.854Z,15.63
2022-10-13T18:53:11.765Z,15.07
2022-10-13T18:58:39.397Z,14.64
2022-10-13T19:04:42.527Z,14.26
2022-10-13T19:10:30.664Z,13.91
2022-10-13T19:16:06.354Z,15.57
2022-10-13T19:22:03.772Z,17.31
2022-10-13T19:27:30.947Z,15.70
2022-10-13T19:32:54.475Z,14.90
2022-10-13T19:38:18.146Z,14.38
2022-10-13T19:43:40.360Z,13.95
2022-10-13T19:49:03.684Z,15.03
2022-10-13T19:54:30.183Z,16.71
2022-10-13T19:59:55.237Z,15.30
2022-10-13T20:05:24.643Z,14.48
2022-10-13T20:10:48.785Z,13.92
2022-10-13T20:16:17.365Z,13.49
2022-10-13T20:21:40.130Z,14.57
2022-10-13T20:27:06.492Z,16.24
2022-10-13T20:32:29.263Z,14.86
2022-10-13T20:37:57.453Z,14.05
2022-10-13T20:43:35.142Z,13.55
2022-10-13T20:49:40.159Z,14.84
2022-10-13T20:55:09.546Z,16.43
2022-10-13T21:00:33.403Z,15.01
2022-10-13T21:06:00.276Z,14.21
2022-10-13T21:11:39.861Z,13.67
2022-10-13T21:17:11.024Z,14.96
2022-10-13T21:22:59.931Z,16.64
2022-10-13T21:28:34.042Z,15.02
2022-10-13T21:34:08.109Z,14.17
2022-10-13T21:39:35.593Z,13.65
2022-10-13T21:45:03.525Z,14.84
2022-10-13T21:56:50.770Z,19.49
2022-10-13T22:02:57.701Z,20.17
2022-10-13T22:08:37.695Z,18.11
2022-10-13T22:14:06.947Z,16.88
2022-10-13T22:19:30.897Z,15.98
2022-10-13T22:24:55.539Z,15.25
2022-10-13T22:30:19.743Z,14.60
2022-10-13T22:35:51.198Z,14.06
2022-10-13T22:41:18.316Z,15.32
2022-10-13T22:46:44.009Z,17.10
2022-10-13T22:52:30.112Z,15.55
2022-10-13T22:58:09.339Z,14.60
2022-10-13T23:03:34.243Z,13.98
2022-10-13T23:09:02.441Z,15.19
2022-10-13T23:14:26.307Z,16.91
2022-10-13T23:19:50.281Z,15.32
2022-10-13T23:25:15.072Z,14.37
2022-10-13T23:30:38.888Z,13.74
2022-10-13T23:36:10.524Z,14.91
2022-10-13T23:41:56.834Z,16.63
2022-10-13T23:47:32.622Z,14.95
2022-10-13T23:53:55.412Z,14.00
2022-10-13T23:59:34.163Z,15.42
